sensor_id;sensor_type;location;lat;lon;timestamp;temperature;humidity
37232;DHT22;23125;48.156;15.954;2023-11-19T00:00:53;5.80;60.20
37232;DHT22;23125;48.156;15.954;2023-11-19T00:03:19;5.80;60.20
37232;DHT22;23125;48.156;15.954;2023-11-19T00:05:46;5.80;60.30
37232;DHT22;23125;48.156;15.954;2023-11-19T00:08:11;5.80;60.20
37232;DHT22;23125;48.156;15.954;2023-11-19T00:10:37;5.90;60.40
37232;DHT22;23125;48.156;15.954;2023-11-19T00:13:03;5.90;60.40
37232;DHT22;23125;48.156;15.954;2023-11-19T00:15:30;5.90;60.40
37232;DHT22;23125;48.156;15.954;2023-11-19T00:17:55;5.90;60.50
37232;DHT22;23125;48.156;15.954;2023-11-19T00:20:21;5.90;60.50
37232;DHT22;23125;48.156;15.954;2023-11-19T00:22:48;5.90;60.40
37232;DHT22;23125;48.156;15.954;2023-11-19T00:25:20;6.00;60.60
37232;DHT22;23125;48.156;15.954;2023-11-19T00:27:47;6.00;60.60
37232;DHT22;23125;48.156;15.954;2023-11-19T00:30:14;6.00;60.60
37232;DHT22;23125;48.156;15.954;2023-11-19T00:32:40;6.00;60.60
37232;DHT22;23125;48.156;15.954;2023-11-19T00:35:07;6.00;60.70
37232;DHT22;23125;48.156;15.954;2023-11-19T00:37:33;6.00;60.70
37232;DHT22;23125;48.156;15.954;2023-11-19T00:39:59;6.10;60.80
37232;DHT22;23125;48.156;15.954;2023-11-19T00:42:25;6.10;60.90
37232;DHT22;23125;48.156;15.954;2023-11-19T00:44:51;6.10;60.90
37232;DHT22;23125;48.156;15.954;2023-11-19T00:47:17;6.10;60.90
37232;DHT22;23125;48.156;15.954;2023-11-19T00:49:47;6.10;60.90
37232;DHT22;23125;48.156;15.954;2023-11-19T00:52:16;6.10;61.00
37232;DHT22;23125;48.156;15.954;2023-11-19T00:54:43;6.10;61.00
37232;DHT22;23125;48.156;15.954;2023-11-19T00:57:09;6.20;61.10
37232;DHT22;23125;48.156;15.954;2023-11-19T00:59:35;6.10;61.20
37232;DHT22;23125;48.156;15.954;2023-11-19T01:02:01;6.20;61.40
37232;DHT22;23125;48.156;15.954;2023-11-19T01:04:35;6.20;61.40
37232;DHT22;23125;48.156;15.954;2023-11-19T01:07:04;6.20;61.50
37232;DHT22;23125;48.156;15.954;2023-11-19T01:09:33;6.30;62.30
37232;DHT22;23125;48.156;15.954;2023-11-19T01:12:01;6.30;61.70
37232;DHT22;23125;48.156;15.954;2023-11-19T01:14:28;6.30;61.70
37232;DHT22;23125;48.156;15.954;2023-11-19T01:16:54;6.30;61.70
37232;DHT22;23125;48.156;15.954;2023-11-19T01:19:23;6.40;61.70
37232;DHT22;23125;48.156;15.954;2023-11-19T01:21:50;6.40;61.80
37232;DHT22;23125;48.156;15.954;2023-11-19T01:24:16;6.40;61.80
37232;DHT22;23125;48.156;15.954;2023-11-19T01:26:43;6.40;61.80
37232;DHT22;23125;48.156;15.954;2023-11-19T01:29:12;6.50;61.90
37232;DHT22;23125;48.156;15.954;2023-11-19T01:31:41;6.50;61.90
37232;DHT22;23125;48.156;15.954;2023-11-19T01:34:08;6.50;61.90
37232;DHT22;23125;48.156;15.954;2023-11-19T01:36:34;6.50;62.00
37232;DHT22;23125;48.156;15.954;2023-11-19T01:39:00;6.60;61.90
37232;DHT22;23125;48.156;15.954;2023-11-19T01:41:26;6.50;62.00
37232;DHT22;23125;48.156;15.954;2023-11-19T01:43:52;6.60;62.00
37232;DHT22;23125;48.156;15.954;2023-11-19T01:46:20;6.60;62.00
37232;DHT22;23125;48.156;15.954;2023-11-19T01:48:46;6.60;62.00
37232;DHT22;23125;48.156;15.954;2023-11-19T01:51:13;6.60;62.10
37232;DHT22;23125;48.156;15.954;2023-11-19T01:53:43;6.60;62.20
37232;DHT22;23125;48.156;15.954;2023-11-19T01:56:11;6.60;62.40
37232;DHT22;23125;48.156;15.954;2023-11-19T01:58:37;6.60;62.40
37232;DHT22;23125;48.156;15.954;2023-11-19T02:01:05;6.60;62.50
37232;DHT22;23125;48.156;15.954;2023-11-19T02:03:33;6.60;62.40
37232;DHT22;23125;48.156;15.954;2023-11-19T02:06:03;6.60;62.40
37232;DHT22;23125;48.156;15.954;2023-11-19T02:08:29;6.60;62.50
37232;DHT22;23125;48.156;15.954;2023-11-19T02:10:56;6.60;62.60
37232;DHT22;23125;48.156;15.954;2023-11-19T02:13:25;6.60;62.70
37232;DHT22;23125;48.156;15.954;2023-11-19T02:15:51;6.60;62.70
37232;DHT22;23125;48.156;15.954;2023-11-19T02:18:19;6.60;63.40
37232;DHT22;23125;48.156;15.954;2023-11-19T02:20:45;6.50;62.90
37232;DHT22;23125;48.156;15.954;2023-11-19T02:23:13;6.50;63.00
37232;DHT22;23125;48.156;15.954;2023-11-19T02:25:40;6.50;63.20
37232;DHT22;23125;48.156;15.954;2023-11-19T02:28:07;6.50;63.20
37232;DHT22;23125;48.156;15.954;2023-11-19T02:30:33;6.50;63.30
37232;DHT22;23125;48.156;15.954;2023-11-19T02:33:00;6.50;63.30
37232;DHT22;23125;48.156;15.954;2023-11-19T02:35:31;6.50;63.40
37232;DHT22;23125;48.156;15.954;2023-11-19T02:37:58;6.60;63.40
37232;DHT22;23125;48.156;15.954;2023-11-19T02:40:26;6.60;63.40
37232;DHT22;23125;48.156;15.954;2023-11-19T02:42:54;6.60;63.50
37232;DHT22;23125;48.156;15.954;2023-11-19T02:45:25;6.60;63.50
37232;DHT22;23125;48.156;15.954;2023-11-19T02:47:53;6.60;63.50
37232;DHT22;23125;48.156;15.954;2023-11-19T02:50:21;6.60;63.50
37232;DHT22;23125;48.156;15.954;2023-11-19T02:52:54;6.60;63.50
37232;DHT22;23125;48.156;15.954;2023-11-19T02:55:22;6.60;63.50
37232;DHT22;23125;48.156;15.954;2023-11-19T02:57:50;6.60;63.60
37232;DHT22;23125;48.156;15.954;2023-11-19T03:00:20;6.60;63.70
37232;DHT22;23125;48.156;15.954;2023-11-19T03:02:50;6.60;63.70
37232;DHT22;23125;48.156;15.954;2023-11-19T03:05:25;6.60;63.90
37232;DHT22;23125;48.156;15.954;2023-11-19T03:07:52;6.60;63.90
37232;DHT22;23125;48.156;15.954;2023-11-19T03:10:18;6.60;63.90
37232;DHT22;23125;48.156;15.954;2023-11-19T03:12:45;6.70;64.10
37232;DHT22;23125;48.156;15.954;2023-11-19T03:15:13;6.70;64.20
37232;DHT22;23125;48.156;15.954;2023-11-19T03:17:40;6.70;64.10
37232;DHT22;23125;48.156;15.954;2023-11-19T03:20:09;6.80;64.20
37232;DHT22;23125;48.156;15.954;2023-11-19T03:22:38;6.80;64.10
37232;DHT22;23125;48.156;15.954;2023-11-19T03:25:05;6.80;64.10
37232;DHT22;23125;48.156;15.954;2023-11-19T03:27:37;6.80;64.00
37232;DHT22;23125;48.156;15.954;2023-11-19T03:30:08;6.80;64.00
37232;DHT22;23125;48.156;15.954;2023-11-19T03:32:37;6.80;64.00
37232;DHT22;23125;48.156;15.954;2023-11-19T03:35:05;6.90;64.10
37232;DHT22;23125;48.156;15.954;2023-11-19T03:37:33;6.80;64.10
37232;DHT22;23125;48.156;15.954;2023-11-19T03:39:59;6.90;64.20
37232;DHT22;23125;48.156;15.954;2023-11-19T03:42:26;6.90;64.30
37232;DHT22;23125;48.156;15.954;2023-11-19T03:44:53;6.90;64.30
37232;DHT22;23125;48.156;15.954;2023-11-19T03:47:20;7.00;64.30
37232;DHT22;23125;48.156;15.954;2023-11-19T03:49:49;7.00;64.30
37232;DHT22;23125;48.156;15.954;2023-11-19T03:52:19;7.00;64.10
37232;DHT22;23125;48.156;15.954;2023-11-19T03:54:45;7.00;64.10
37232;DHT22;23125;48.156;15.954;2023-11-19T03:57:12;7.00;64.10
37232;DHT22;23125;48.156;15.954;2023-11-19T03:59:39;7.10;64.10
37232;DHT22;23125;48.156;15.954;2023-11-19T04:02:05;7.10;63.90
37232;DHT22;23125;48.156;15.954;2023-11-19T04:04:31;7.00;63.80
37232;DHT22;23125;48.156;15.954;2023-11-19T04:06:58;7.00;63.90
37232;DHT22;23125;48.156;15.954;2023-11-19T04:09:26;7.00;64.10
37232;DHT22;23125;48.156;15.954;2023-11-19T04:11:52;7.00;64.10
37232;DHT22;23125;48.156;15.954;2023-11-19T04:14:18;6.90;64.10
37232;DHT22;23125;48.156;15.954;2023-11-19T04:16:45;7.00;64.30
37232;DHT22;23125;48.156;15.954;2023-11-19T04:19:11;7.00;64.30
37232;DHT22;23125;48.156;15.954;2023-11-19T04:21:39;7.00;64.40
37232;DHT22;23125;48.156;15.954;2023-11-19T04:24:06;7.00;64.30
37232;DHT22;23125;48.156;15.954;2023-11-19T04:26:32;6.90;64.30
37232;DHT22;23125;48.156;15.954;2023-11-19T04:28:58;6.90;64.40
37232;DHT22;23125;48.156;15.954;2023-11-19T04:31:29;7.00;64.60
37232;DHT22;23125;48.156;15.954;2023-11-19T04:33:57;7.00;64.80
37232;DHT22;23125;48.156;15.954;2023-11-19T04:36:22;7.00;64.80
37232;DHT22;23125;48.156;15.954;2023-11-19T04:38:50;7.00;64.90
37232;DHT22;23125;48.156;15.954;2023-11-19T04:41:16;7.00;64.70
37232;DHT22;23125;48.156;15.954;2023-11-19T04:43:42;7.00;64.90
37232;DHT22;23125;48.156;15.954;2023-11-19T04:46:09;7.10;65.00
37232;DHT22;23125;48.156;15.954;2023-11-19T04:48:35;7.10;64.90
37232;DHT22;23125;48.156;15.954;2023-11-19T04:51:01;7.10;65.00
37232;DHT22;23125;48.156;15.954;2023-11-19T04:53:30;7.10;64.90
37232;DHT22;23125;48.156;15.954;2023-11-19T04:55:55;7.20;64.90
37232;DHT22;23125;48.156;15.954;2023-11-19T04:58:21;7.20;65.00
37232;DHT22;23125;48.156;15.954;2023-11-19T05:00:48;7.20;64.90
37232;DHT22;23125;48.156;15.954;2023-11-19T05:03:13;7.20;65.00
37232;DHT22;23125;48.156;15.954;2023-11-19T05:05:39;7.20;64.90
37232;DHT22;23125;48.156;15.954;2023-11-19T05:08:05;7.20;64.80
37232;DHT22;23125;48.156;15.954;2023-11-19T05:10:31;7.20;64.80
37232;DHT22;23125;48.156;15.954;2023-11-19T05:12:57;7.20;65.00
37232;DHT22;23125;48.156;15.954;2023-11-19T05:15:23;7.20;65.20
37232;DHT22;23125;48.156;15.954;2023-11-19T05:17:49;7.20;65.30
37232;DHT22;23125;48.156;15.954;2023-11-19T05:20:15;7.30;65.40
37232;DHT22;23125;48.156;15.954;2023-11-19T05:22:42;7.30;65.50
37232;DHT22;23125;48.156;15.954;2023-11-19T05:25:09;7.30;65.50
37232;DHT22;23125;48.156;15.954;2023-11-19T05:27:37;7.40;65.50
37232;DHT22;23125;48.156;15.954;2023-11-19T05:30:06;7.40;65.40
37232;DHT22;23125;48.156;15.954;2023-11-19T05:32:33;7.40;65.40
37232;DHT22;23125;48.156;15.954;2023-11-19T05:34:59;7.50;65.40
37232;DHT22;23125;48.156;15.954;2023-11-19T05:37:25;7.50;65.40
37232;DHT22;23125;48.156;15.954;2023-11-19T05:39:51;7.50;65.30
37232;DHT22;23125;48.156;15.954;2023-11-19T05:42:17;7.60;65.40
37232;DHT22;23125;48.156;15.954;2023-11-19T05:44:43;7.60;65.30
37232;DHT22;23125;48.156;15.954;2023-11-19T05:47:09;7.60;65.20
37232;DHT22;23125;48.156;15.954;2023-11-19T05:49:35;7.60;65.20
37232;DHT22;23125;48.156;15.954;2023-11-19T05:52:01;7.60;65.20
37232;DHT22;23125;48.156;15.954;2023-11-19T05:54:29;7.60;65.20
37232;DHT22;23125;48.156;15.954;2023-11-19T05:56:55;7.70;65.20
37232;DHT22;23125;48.156;15.954;2023-11-19T05:59:21;7.70;65.20
37232;DHT22;23125;48.156;15.954;2023-11-19T06:01:48;7.70;65.20
37232;DHT22;23125;48.156;15.954;2023-11-19T06:04:14;7.70;65.10
37232;DHT22;23125;48.156;15.954;2023-11-19T06:06:40;7.70;65.10
37232;DHT22;23125;48.156;15.954;2023-11-19T06:09:06;7.70;65.20
37232;DHT22;23125;48.156;15.954;2023-11-19T06:11:33;7.70;65.20
37232;DHT22;23125;48.156;15.954;2023-11-19T06:14:00;7.70;65.10
37232;DHT22;23125;48.156;15.954;2023-11-19T06:16:25;7.70;65.10
37232;DHT22;23125;48.156;15.954;2023-11-19T06:18:52;7.80;65.20
37232;DHT22;23125;48.156;15.954;2023-11-19T06:21:19;7.80;65.30
37232;DHT22;23125;48.156;15.954;2023-11-19T06:23:45;7.80;65.30
37232;DHT22;23125;48.156;15.954;2023-11-19T06:26:10;7.80;65.30
37232;DHT22;23125;48.156;15.954;2023-11-19T06:28:36;7.80;65.30
37232;DHT22;23125;48.156;15.954;2023-11-19T06:31:03;7.80;65.30
37232;DHT22;23125;48.156;15.954;2023-11-19T06:33:29;7.80;66.00
37232;DHT22;23125;48.156;15.954;2023-11-19T06:35:55;7.80;65.30
37232;DHT22;23125;48.156;15.954;2023-11-19T06:38:21;7.80;65.40
37232;DHT22;23125;48.156;15.954;2023-11-19T06:40:47;7.90;65.40
37232;DHT22;23125;48.156;15.954;2023-11-19T06:43:12;7.90;65.30
37232;DHT22;23125;48.156;15.954;2023-11-19T06:45:39;7.90;65.30
37232;DHT22;23125;48.156;15.954;2023-11-19T06:48:05;7.90;65.30
37232;DHT22;23125;48.156;15.954;2023-11-19T06:50:31;7.90;65.30
37232;DHT22;23125;48.156;15.954;2023-11-19T06:52:58;7.90;65.30
37232;DHT22;23125;48.156;15.954;2023-11-19T06:55:23;7.90;65.30
37232;DHT22;23125;48.156;15.954;2023-11-19T06:57:49;7.90;65.40
37232;DHT22;23125;48.156;15.954;2023-11-19T07:00:15;8.00;65.50
37232;DHT22;23125;48.156;15.954;2023-11-19T07:02:42;8.00;65.50
37232;DHT22;23125;48.156;15.954;2023-11-19T07:05:10;8.00;65.60
37232;DHT22;23125;48.156;15.954;2023-11-19T07:07:38;8.00;65.70
37232;DHT22;23125;48.156;15.954;2023-11-19T07:10:06;8.10;65.70
37232;DHT22;23125;48.156;15.954;2023-11-19T07:12:34;8.10;65.60
37232;DHT22;23125;48.156;15.954;2023-11-19T07:15:01;8.10;65.60
37232;DHT22;23125;48.156;15.954;2023-11-19T07:17:30;8.10;65.60
37232;DHT22;23125;48.156;15.954;2023-11-19T07:19:56;8.10;65.60
37232;DHT22;23125;48.156;15.954;2023-11-19T07:22:25;8.10;65.60
37232;DHT22;23125;48.156;15.954;2023-11-19T07:24:51;8.20;65.70
37232;DHT22;23125;48.156;15.954;2023-11-19T07:27:19;8.20;65.60
37232;DHT22;23125;48.156;15.954;2023-11-19T07:29:45;8.20;65.60
37232;DHT22;23125;48.156;15.954;2023-11-19T07:32:12;8.20;65.70
37232;DHT22;23125;48.156;15.954;2023-11-19T07:34:39;8.30;65.80
37232;DHT22;23125;48.156;15.954;2023-11-19T07:37:05;8.30;65.80
37232;DHT22;23125;48.156;15.954;2023-11-19T07:39:31;8.30;65.80
37232;DHT22;23125;48.156;15.954;2023-11-19T07:41:58;8.30;65.60
37232;DHT22;23125;48.156;15.954;2023-11-19T07:44:24;8.30;65.60
37232;DHT22;23125;48.156;15.954;2023-11-19T07:46:50;8.40;65.80
37232;DHT22;23125;48.156;15.954;2023-11-19T07:49:16;8.40;66.70
37232;DHT22;23125;48.156;15.954;2023-11-19T07:51:42;8.50;66.00
37232;DHT22;23125;48.156;15.954;2023-11-19T07:54:07;8.50;66.10
37232;DHT22;23125;48.156;15.954;2023-11-19T07:56:34;8.60;66.10
37232;DHT22;23125;48.156;15.954;2023-11-19T07:59:02;8.60;66.10
37232;DHT22;23125;48.156;15.954;2023-11-19T08:01:28;8.60;66.20
37232;DHT22;23125;48.156;15.954;2023-11-19T08:03:54;8.70;66.40
37232;DHT22;23125;48.156;15.954;2023-11-19T08:06:20;8.80;66.50
37232;DHT22;23125;48.156;15.954;2023-11-19T08:08:46;8.90;66.60
37232;DHT22;23125;48.156;15.954;2023-11-19T08:11:14;9.00;66.60
37232;DHT22;23125;48.156;15.954;2023-11-19T08:13:40;9.00;66.50
37232;DHT22;23125;48.156;15.954;2023-11-19T08:16:07;9.10;66.60
37232;DHT22;23125;48.156;15.954;2023-11-19T08:18:33;9.10;66.80
37232;DHT22;23125;48.156;15.954;2023-11-19T08:20:59;9.30;67.00
37232;DHT22;23125;48.156;15.954;2023-11-19T08:23:26;9.40;66.90
37232;DHT22;23125;48.156;15.954;2023-11-19T08:25:54;9.40;66.70
37232;DHT22;23125;48.156;15.954;2023-11-19T08:28:20;9.50;66.70
37232;DHT22;23125;48.156;15.954;2023-11-19T08:30:46;9.60;66.60
37232;DHT22;23125;48.156;15.954;2023-11-19T08:33:12;9.70;66.60
37232;DHT22;23125;48.156;15.954;2023-11-19T08:35:38;9.70;66.50
37232;DHT22;23125;48.156;15.954;2023-11-19T08:38:04;9.80;66.40
37232;DHT22;23125;48.156;15.954;2023-11-19T08:40:29;9.90;66.40
37232;DHT22;23125;48.156;15.954;2023-11-19T08:42:56;9.90;66.50
37232;DHT22;23125;48.156;15.954;2023-11-19T08:45:22;10.00;66.60
37232;DHT22;23125;48.156;15.954;2023-11-19T08:47:48;10.10;66.40
37232;DHT22;23125;48.156;15.954;2023-11-19T08:50:14;10.20;66.40
37232;DHT22;23125;48.156;15.954;2023-11-19T08:52:40;10.30;66.60
37232;DHT22;23125;48.156;15.954;2023-11-19T08:55:06;10.30;66.50
37232;DHT22;23125;48.156;15.954;2023-11-19T08:57:32;10.40;66.40
37232;DHT22;23125;48.156;15.954;2023-11-19T09:00:01;10.50;66.30
37232;DHT22;23125;48.156;15.954;2023-11-19T09:02:28;10.60;66.20
37232;DHT22;23125;48.156;15.954;2023-11-19T09:04:54;10.60;65.80
37232;DHT22;23125;48.156;15.954;2023-11-19T09:07:20;10.60;65.80
37232;DHT22;23125;48.156;15.954;2023-11-19T09:09:47;10.70;65.90
37232;DHT22;23125;48.156;15.954;2023-11-19T09:12:12;10.80;66.30
37232;DHT22;23125;48.156;15.954;2023-11-19T09:14:39;10.90;66.70
37232;DHT22;23125;48.156;15.954;2023-11-19T09:17:05;11.10;66.80
37232;DHT22;23125;48.156;15.954;2023-11-19T09:19:32;11.20;66.70
37232;DHT22;23125;48.156;15.954;2023-11-19T09:22:01;11.20;66.30
37232;DHT22;23125;48.156;15.954;2023-11-19T09:24:28;11.30;66.00
37232;DHT22;23125;48.156;15.954;2023-11-19T09:26:54;11.40;66.00
37232;DHT22;23125;48.156;15.954;2023-11-19T09:29:21;11.50;66.10
37232;DHT22;23125;48.156;15.954;2023-11-19T09:31:47;11.60;65.80
37232;DHT22;23125;48.156;15.954;2023-11-19T09:34:13;11.60;65.50
37232;DHT22;23125;48.156;15.954;2023-11-19T09:36:39;11.70;65.50
37232;DHT22;23125;48.156;15.954;2023-11-19T09:39:12;11.70;65.60
37232;DHT22;23125;48.156;15.954;2023-11-19T09:41:40;11.80;65.50
37232;DHT22;23125;48.156;15.954;2023-11-19T09:44:08;11.90;65.50
37232;DHT22;23125;48.156;15.954;2023-11-19T09:46:35;11.90;65.20
37232;DHT22;23125;48.156;15.954;2023-11-19T09:49:02;11.90;64.90
37232;DHT22;23125;48.156;15.954;2023-11-19T09:51:31;12.00;64.60
37232;DHT22;23125;48.156;15.954;2023-11-19T09:53:56;11.90;64.10
37232;DHT22;23125;48.156;15.954;2023-11-19T09:56:23;11.90;64.20
37232;DHT22;23125;48.156;15.954;2023-11-19T09:58:49;11.90;64.30
37232;DHT22;23125;48.156;15.954;2023-11-19T10:01:15;11.90;64.20
37232;DHT22;23125;48.156;15.954;2023-11-19T10:03:41;11.90;64.30
37232;DHT22;23125;48.156;15.954;2023-11-19T10:06:10;12.00;64.50
37232;DHT22;23125;48.156;15.954;2023-11-19T10:08:37;12.00;64.40
37232;DHT22;23125;48.156;15.954;2023-11-19T10:11:06;12.00;64.20
37232;DHT22;23125;48.156;15.954;2023-11-19T10:13:35;12.00;64.10
37232;DHT22;23125;48.156;15.954;2023-11-19T10:16:13;12.00;63.90
37232;DHT22;23125;48.156;15.954;2023-11-19T10:18:49;11.90;63.60
37232;DHT22;23125;48.156;15.954;2023-11-19T10:21:19;11.90;63.50
37232;DHT22;23125;48.156;15.954;2023-11-19T10:23:49;11.90;63.70
37232;DHT22;23125;48.156;15.954;2023-11-19T10:26:21;11.80;63.60
37232;DHT22;23125;48.156;15.954;2023-11-19T10:28:47;11.80;63.80
37232;DHT22;23125;48.156;15.954;2023-11-19T10:31:17;11.80;64.00
37232;DHT22;23125;48.156;15.954;2023-11-19T10:33:44;11.80;64.20
37232;DHT22;23125;48.156;15.954;2023-11-19T10:36:11;11.80;64.30
37232;DHT22;23125;48.156;15.954;2023-11-19T10:38:38;11.90;64.60
37232;DHT22;23125;48.156;15.954;2023-11-19T10:41:05;11.90;64.50
37232;DHT22;23125;48.156;15.954;2023-11-19T10:43:31;11.90;64.60
37232;DHT22;23125;48.156;15.954;2023-11-19T10:46:10;12.00;64.70
37232;DHT22;23125;48.156;15.954;2023-11-19T10:48:38;12.00;64.50
37232;DHT22;23125;48.156;15.954;2023-11-19T10:51:06;12.00;64.70
37232;DHT22;23125;48.156;15.954;2023-11-19T10:53:38;12.10;64.90
37232;DHT22;23125;48.156;15.954;2023-11-19T10:56:10;12.10;64.60
37232;DHT22;23125;48.156;15.954;2023-11-19T10:58:37;12.10;64.40
37232;DHT22;23125;48.156;15.954;2023-11-19T11:01:11;12.10;64.30
37232;DHT22;23125;48.156;15.954;2023-11-19T11:03:40;12.10;64.40
37232;DHT22;23125;48.156;15.954;2023-11-19T11:06:07;12.10;64.20
37232;DHT22;23125;48.156;15.954;2023-11-19T11:08:37;12.20;64.40
37232;DHT22;23125;48.156;15.954;2023-11-19T11:11:04;12.20;64.60
37232;DHT22;23125;48.156;15.954;2023-11-19T11:13:32;12.20;64.70
37232;DHT22;23125;48.156;15.954;2023-11-19T11:15:59;12.20;64.60
37232;DHT22;23125;48.156;15.954;2023-11-19T11:18:26;12.20;64.50
37232;DHT22;23125;48.156;15.954;2023-11-19T11:21:05;12.20;64.40
37232;DHT22;23125;48.156;15.954;2023-11-19T11:26:34;12.20;64.50
37232;DHT22;23125;48.156;15.954;2023-11-19T11:29:31;12.20;64.60
37232;DHT22;23125;48.156;15.954;2023-11-19T11:32:20;12.30;64.80
37232;DHT22;23125;48.156;15.954;2023-11-19T11:37:21;12.30;65.00
37232;DHT22;23125;48.156;15.954;2023-11-19T11:39:52;12.30;65.00
37232;DHT22;23125;48.156;15.954;2023-11-19T11:50:15;12.50;65.70
37232;DHT22;23125;48.156;15.954;2023-11-19T11:55:33;12.60;65.90
37232;DHT22;23125;48.156;15.954;2023-11-19T11:58:00;12.60;65.90
37232;DHT22;23125;48.156;15.954;2023-11-19T12:02:54;12.70;66.30
37232;DHT22;23125;48.156;15.954;2023-11-19T12:05:21;12.80;66.70
37232;DHT22;23125;48.156;15.954;2023-11-19T12:08:01;12.90;66.80
37232;DHT22;23125;48.156;15.954;2023-11-19T12:10:43;12.90;66.80
37232;DHT22;23125;48.156;15.954;2023-11-19T12:13:10;13.00;66.80
37232;DHT22;23125;48.156;15.954;2023-11-19T12:18:31;13.10;66.90
37232;DHT22;23125;48.156;15.954;2023-11-19T12:20:59;13.10;66.90
37232;DHT22;23125;48.156;15.954;2023-11-19T12:23:29;13.20;67.00
37232;DHT22;23125;48.156;15.954;2023-11-19T12:25:56;13.20;67.00
37232;DHT22;23125;48.156;15.954;2023-11-19T12:28:22;13.20;66.90
37232;DHT22;23125;48.156;15.954;2023-11-19T12:30:49;13.20;66.90
37232;DHT22;23125;48.156;15.954;2023-11-19T12:33:16;13.30;67.00
37232;DHT22;23125;48.156;15.954;2023-11-19T12:35:47;13.30;67.20
37232;DHT22;23125;48.156;15.954;2023-11-19T12:38:23;13.30;67.40
37232;DHT22;23125;48.156;15.954;2023-11-19T12:41:09;13.40;67.50
37232;DHT22;23125;48.156;15.954;2023-11-19T12:43:39;13.40;67.60
37232;DHT22;23125;48.156;15.954;2023-11-19T12:46:19;13.50;67.60
37232;DHT22;23125;48.156;15.954;2023-11-19T12:48:46;13.50;67.60
37232;DHT22;23125;48.156;15.954;2023-11-19T12:51:13;13.50;67.80
37232;DHT22;23125;48.156;15.954;2023-11-19T12:53:52;13.60;67.90
37232;DHT22;23125;48.156;15.954;2023-11-19T12:56:21;13.60;68.00
37232;DHT22;23125;48.156;15.954;2023-11-19T12:58:47;13.70;68.30
37232;DHT22;23125;48.156;15.954;2023-11-19T13:01:18;13.70;68.40
37232;DHT22;23125;48.156;15.954;2023-11-19T13:03:45;13.80;68.10
37232;DHT22;23125;48.156;15.954;2023-11-19T13:06:13;13.80;68.00
37232;DHT22;23125;48.156;15.954;2023-11-19T13:08:45;13.90;68.50
37232;DHT22;23125;48.156;15.954;2023-11-19T13:11:12;14.00;68.80
37232;DHT22;23125;48.156;15.954;2023-11-19T13:13:55;14.00;68.40
37232;DHT22;23125;48.156;15.954;2023-11-19T13:16:22;14.10;68.30
37232;DHT22;23125;48.156;15.954;2023-11-19T13:18:48;14.10;68.10
37232;DHT22;23125;48.156;15.954;2023-11-19T13:21:14;14.10;67.90
37232;DHT22;23125;48.156;15.954;2023-11-19T13:23:40;14.10;67.60
37232;DHT22;23125;48.156;15.954;2023-11-19T13:26:06;14.20;67.80
37232;DHT22;23125;48.156;15.954;2023-11-19T13:28:32;14.20;67.80
37232;DHT22;23125;48.156;15.954;2023-11-19T13:30:57;14.20;67.60
37232;DHT22;23125;48.156;15.954;2023-11-19T13:33:23;14.20;67.60
37232;DHT22;23125;48.156;15.954;2023-11-19T13:35:49;14.20;67.60
37232;DHT22;23125;48.156;15.954;2023-11-19T13:38:15;14.20;67.60
37232;DHT22;23125;48.156;15.954;2023-11-19T13:40:41;14.20;67.60
37232;DHT22;23125;48.156;15.954;2023-11-19T13:43:07;14.30;67.60
37232;DHT22;23125;48.156;15.954;2023-11-19T13:45:33;14.20;67.40
37232;DHT22;23125;48.156;15.954;2023-11-19T13:47:59;14.20;67.60
37232;DHT22;23125;48.156;15.954;2023-11-19T13:50:24;14.20;67.60
37232;DHT22;23125;48.156;15.954;2023-11-19T13:52:51;14.30;67.70
37232;DHT22;23125;48.156;15.954;2023-11-19T13:55:17;14.30;67.80
37232;DHT22;23125;48.156;15.954;2023-11-19T13:57:44;14.30;67.70
37232;DHT22;23125;48.156;15.954;2023-11-19T14:00:11;14.30;67.70
37232;DHT22;23125;48.156;15.954;2023-11-19T14:02:42;14.30;67.60
37232;DHT22;23125;48.156;15.954;2023-11-19T14:05:09;14.30;67.60
37232;DHT22;23125;48.156;15.954;2023-11-19T14:07:37;14.30;67.40
37232;DHT22;23125;48.156;15.954;2023-11-19T14:10:03;14.30;67.30
37232;DHT22;23125;48.156;15.954;2023-11-19T14:12:31;14.30;67.40
37232;DHT22;23125;48.156;15.954;2023-11-19T14:14:58;14.20;67.30
37232;DHT22;23125;48.156;15.954;2023-11-19T14:17:26;14.20;67.30
37232;DHT22;23125;48.156;15.954;2023-11-19T14:19:52;14.20;67.40
37232;DHT22;23125;48.156;15.954;2023-11-19T14:22:18;14.10;67.40
37232;DHT22;23125;48.156;15.954;2023-11-19T14:24:44;14.10;67.60
37232;DHT22;23125;48.156;15.954;2023-11-19T14:27:10;14.10;67.60
37232;DHT22;23125;48.156;15.954;2023-11-19T14:29:37;14.10;67.60
37232;DHT22;23125;48.156;15.954;2023-11-19T14:32:03;14.10;67.70
37232;DHT22;23125;48.156;15.954;2023-11-19T14:34:30;14.10;67.70
37232;DHT22;23125;48.156;15.954;2023-11-19T14:36:57;14.10;67.80
37232;DHT22;23125;48.156;15.954;2023-11-19T14:39:23;14.00;67.80
37232;DHT22;23125;48.156;15.954;2023-11-19T14:41:49;14.00;67.90
37232;DHT22;23125;48.156;15.954;2023-11-19T14:44:16;14.00;68.00
37232;DHT22;23125;48.156;15.954;2023-11-19T14:46:42;14.10;68.10
37232;DHT22;23125;48.156;15.954;2023-11-19T14:49:08;14.10;68.00
37232;DHT22;23125;48.156;15.954;2023-11-19T14:51:38;14.10;68.10
37232;DHT22;23125;48.156;15.954;2023-11-19T14:54:05;14.10;68.10
37232;DHT22;23125;48.156;15.954;2023-11-19T14:56:31;14.10;68.10
37232;DHT22;23125;48.156;15.954;2023-11-19T14:58:57;14.00;68.00
37232;DHT22;23125;48.156;15.954;2023-11-19T15:01:24;14.10;68.10
37232;DHT22;23125;48.156;15.954;2023-11-19T15:03:50;14.00;68.10
37232;DHT22;23125;48.156;15.954;2023-11-19T15:06:16;14.10;68.10
37232;DHT22;23125;48.156;15.954;2023-11-19T15:08:42;14.10;68.10
37232;DHT22;23125;48.156;15.954;2023-11-19T15:11:10;14.00;68.10
37232;DHT22;23125;48.156;15.954;2023-11-19T15:13:37;14.10;68.30
37232;DHT22;23125;48.156;15.954;2023-11-19T15:16:06;14.10;68.30
37232;DHT22;23125;48.156;15.954;2023-11-19T15:18:36;14.10;68.30
37232;DHT22;23125;48.156;15.954;2023-11-19T15:21:02;14.00;68.20
37232;DHT22;23125;48.156;15.954;2023-11-19T15:23:28;14.00;68.10
37232;DHT22;23125;48.156;15.954;2023-11-19T15:25:55;14.00;68.20
37232;DHT22;23125;48.156;15.954;2023-11-19T15:28:21;14.00;68.20
37232;DHT22;23125;48.156;15.954;2023-11-19T15:30:47;14.00;68.10
37232;DHT22;23125;48.156;15.954;2023-11-19T15:33:13;14.00;67.90
37232;DHT22;23125;48.156;15.954;2023-11-19T15:35:39;13.90;67.90
37232;DHT22;23125;48.156;15.954;2023-11-19T15:38:06;13.90;67.90
37232;DHT22;23125;48.156;15.954;2023-11-19T15:40:35;13.90;67.80
37232;DHT22;23125;48.156;15.954;2023-11-19T15:43:04;13.90;67.60
37232;DHT22;23125;48.156;15.954;2023-11-19T15:45:33;13.80;67.50
37232;DHT22;23125;48.156;15.954;2023-11-19T15:48:04;13.80;67.50